sensor_id;sensor_type;location;lat;lon;timestamp;P1;durP1;ratioP1;P2;durP2;ratioP2
28988;SDS011;16089;59.952;10.818;2022-08-19T00:01:43;29.70;;;17.38;;
28988;SDS011;16089;59.952;10.818;2022-08-19T00:04:12;29.42;;;16.33;;
28988;SDS011;16089;59.952;10.818;2022-08-19T00:06:39;27.10;;;15.98;;
28988;SDS011;16089;59.952;10.818;2022-08-19T00:09:07;28.52;;;16.33;;
28988;SDS011;16089;59.952;10.818;2022-08-19T00:11:34;25.48;;;16.10;;
28988;SDS011;16089;59.952;10.818;2022-08-19T00:14:03;27.42;;;17.70;;
28988;SDS011;16089;59.952;10.818;2022-08-19T00:16:29;25.63;;;16.40;;
28988;SDS011;16089;59.952;10.818;2022-08-19T00:18:56;37.63;;;18.00;;
28988;SDS011;16089;59.952;10.818;2022-08-19T00:21:24;28.83;;;17.23;;
28988;SDS011;16089;59.952;10.818;2022-08-19T00:23:51;33.28;;;16.63;;
28988;SDS011;16089;59.952;10.818;2022-08-19T00:26:18;27.25;;;16.17;;
28988;SDS011;16089;59.952;10.818;2022-08-19T00:28:44;29.60;;;17.30;;
28988;SDS011;16089;59.952;10.818;2022-08-19T00:31:11;27.40;;;16.80;;
28988;SDS011;16089;59.952;10.818;2022-08-19T00:33:37;26.67;;;15.15;;
28988;SDS011;16089;59.952;10.818;2022-08-19T00:36:05;29.15;;;17.02;;
28988;SDS011;16089;59.952;10.818;2022-08-19T00:38:33;28.17;;;16.88;;
28988;SDS011;16089;59.952;10.818;2022-08-19T00:41:00;26.80;;;15.65;;
28988;SDS011;16089;59.952;10.818;2022-08-19T00:43:26;25.77;;;15.75;;
28988;SDS011;16089;59.952;10.818;2022-08-19T00:45:53;28.42;;;17.17;;
28988;SDS011;16089;59.952;10.818;2022-08-19T00:48:20;25.10;;;15.95;;
28988;SDS011;16089;59.952;10.818;2022-08-19T00:50:48;28.30;;;16.88;;
28988;SDS011;16089;59.952;10.818;2022-08-19T00:53:16;26.10;;;16.85;;
28988;SDS011;16089;59.952;10.818;2022-08-19T00:55:46;28.02;;;17.10;;
28988;SDS011;16089;59.952;10.818;2022-08-19T00:58:14;30.02;;;17.30;;
28988;SDS011;16089;59.952;10.818;2022-08-19T01:00:41;26.80;;;16.00;;
28988;SDS011;16089;59.952;10.818;2022-08-19T01:03:09;31.75;;;16.88;;
28988;SDS011;16089;59.952;10.818;2022-08-19T01:05:36;32.58;;;18.02;;
28988;SDS011;16089;59.952;10.818;2022-08-19T01:08:03;29.05;;;17.48;;
28988;SDS011;16089;59.952;10.818;2022-08-19T01:10:39;29.90;;;17.00;;
28988;SDS011;16089;59.952;10.818;2022-08-19T01:13:08;33.72;;;18.67;;
28988;SDS011;16089;59.952;10.818;2022-08-19T01:15:35;30.58;;;18.45;;
28988;SDS011;16089;59.952;10.818;2022-08-19T01:18:08;29.08;;;18.48;;
28988;SDS011;16089;59.952;10.818;2022-08-19T01:20:35;30.00;;;18.15;;
28988;SDS011;16089;59.952;10.818;2022-08-19T01:23:03;28.00;;;17.42;;
28988;SDS011;16089;59.952;10.818;2022-08-19T01:25:31;31.60;;;19.05;;
28988;SDS011;16089;59.952;10.818;2022-08-19T01:27:58;30.38;;;18.20;;
28988;SDS011;16089;59.952;10.818;2022-08-19T01:30:26;30.65;;;20.13;;
28988;SDS011;16089;59.952;10.818;2022-08-19T01:32:52;31.60;;;17.40;;
28988;SDS011;16089;59.952;10.818;2022-08-19T01:35:19;29.35;;;18.17;;
28988;SDS011;16089;59.952;10.818;2022-08-19T01:37:47;26.55;;;17.30;;
28988;SDS011;16089;59.952;10.818;2022-08-19T01:40:15;30.38;;;19.17;;
28988;SDS011;16089;59.952;10.818;2022-08-19T01:42:42;29.60;;;18.92;;
28988;SDS011;16089;59.952;10.818;2022-08-19T01:45:08;27.38;;;17.10;;
28988;SDS011;16089;59.952;10.818;2022-08-19T01:47:35;28.83;;;17.73;;
28988;SDS011;16089;59.952;10.818;2022-08-19T01:50:02;27.85;;;17.63;;
28988;SDS011;16089;59.952;10.818;2022-08-19T01:52:29;27.48;;;17.48;;
28988;SDS011;16089;59.952;10.818;2022-08-19T01:54:55;21.85;;;16.10;;
28988;SDS011;16089;59.952;10.818;2022-08-19T01:57:23;24.63;;;16.63;;
28988;SDS011;16089;59.952;10.818;2022-08-19T01:59:51;25.77;;;16.92;;
28988;SDS011;16089;59.952;10.818;2022-08-19T02:02:17;30.02;;;17.52;;
28988;SDS011;16089;59.952;10.818;2022-08-19T02:04:43;26.83;;;16.13;;
28988;SDS011;16089;59.952;10.818;2022-08-19T02:07:11;25.00;;;16.67;;
28988;SDS011;16089;59.952;10.818;2022-08-19T02:09:37;26.50;;;16.92;;
28988;SDS011;16089;59.952;10.818;2022-08-19T02:12:04;27.27;;;17.60;;
28988;SDS011;16089;59.952;10.818;2022-08-19T02:14:32;26.00;;;16.80;;
28988;SDS011;16089;59.952;10.818;2022-08-19T02:16:59;27.95;;;17.67;;
28988;SDS011;16089;59.952;10.818;2022-08-19T02:19:26;27.45;;;16.80;;
28988;SDS011;16089;59.952;10.818;2022-08-19T02:21:52;25.50;;;18.90;;
28988;SDS011;16089;59.952;10.818;2022-08-19T02:24:19;30.52;;;18.90;;
28988;SDS011;16089;59.952;10.818;2022-08-19T02:26:45;27.60;;;17.52;;
28988;SDS011;16089;59.952;10.818;2022-08-19T02:29:11;26.92;;;17.30;;
28988;SDS011;16089;59.952;10.818;2022-08-19T02:31:39;28.73;;;18.67;;
28988;SDS011;16089;59.952;10.818;2022-08-19T02:34:05;26.67;;;18.77;;
28988;SDS011;16089;59.952;10.818;2022-08-19T02:36:32;31.52;;;17.67;;
28988;SDS011;16089;59.952;10.818;2022-08-19T02:38:58;27.17;;;19.70;;
28988;SDS011;16089;59.952;10.818;2022-08-19T02:41:25;27.08;;;18.52;;
28988;SDS011;16089;59.952;10.818;2022-08-19T02:43:52;31.85;;;20.45;;
28988;SDS011;16089;59.952;10.818;2022-08-19T02:46:20;29.58;;;19.45;;
28988;SDS011;16089;59.952;10.818;2022-08-19T02:48:48;28.98;;;19.65;;
28988;SDS011;16089;59.952;10.818;2022-08-19T02:51:15;28.10;;;18.95;;
28988;SDS011;16089;59.952;10.818;2022-08-19T02:53:42;27.67;;;19.85;;
28988;SDS011;16089;59.952;10.818;2022-08-19T02:56:09;22.58;;;17.55;;
28988;SDS011;16089;59.952;10.818;2022-08-19T02:58:35;27.25;;;18.50;;
28988;SDS011;16089;59.952;10.818;2022-08-19T03:01:02;26.30;;;18.85;;
28988;SDS011;16089;59.952;10.818;2022-08-19T03:03:28;30.10;;;19.88;;
28988;SDS011;16089;59.952;10.818;2022-08-19T03:06:07;27.35;;;19.45;;
28988;SDS011;16089;59.952;10.818;2022-08-19T03:08:33;29.17;;;19.77;;
28988;SDS011;16089;59.952;10.818;2022-08-19T03:11:00;27.13;;;19.15;;
28988;SDS011;16089;59.952;10.818;2022-08-19T03:13:26;26.90;;;18.85;;
28988;SDS011;16089;59.952;10.818;2022-08-19T03:15:53;33.67;;;20.58;;
28988;SDS011;16089;59.952;10.818;2022-08-19T03:18:19;27.13;;;19.52;;
28988;SDS011;16089;59.952;10.818;2022-08-19T03:20:46;29.70;;;20.13;;
28988;SDS011;16089;59.952;10.818;2022-08-19T03:23:15;25.67;;;18.63;;
28988;SDS011;16089;59.952;10.818;2022-08-19T03:25:43;26.88;;;18.63;;
28988;SDS011;16089;59.952;10.818;2022-08-19T03:28:10;26.33;;;17.77;;
28988;SDS011;16089;59.952;10.818;2022-08-19T03:30:38;26.80;;;18.30;;
28988;SDS011;16089;59.952;10.818;2022-08-19T03:33:05;25.50;;;18.58;;
28988;SDS011;16089;59.952;10.818;2022-08-19T03:35:32;26.40;;;16.60;;
28988;SDS011;16089;59.952;10.818;2022-08-19T03:38:00;22.83;;;17.27;;
28988;SDS011;16089;59.952;10.818;2022-08-19T03:40:27;23.75;;;17.08;;
28988;SDS011;16089;59.952;10.818;2022-08-19T03:42:55;24.33;;;16.45;;
28988;SDS011;16089;59.952;10.818;2022-08-19T03:45:21;22.27;;;15.48;;
28988;SDS011;16089;59.952;10.818;2022-08-19T03:47:48;18.58;;;13.90;;
28988;SDS011;16089;59.952;10.818;2022-08-19T03:50:14;20.30;;;14.25;;
28988;SDS011;16089;59.952;10.818;2022-08-19T03:52:41;21.60;;;13.98;;
28988;SDS011;16089;59.952;10.818;2022-08-19T03:55:08;21.67;;;13.60;;
28988;SDS011;16089;59.952;10.818;2022-08-19T03:57:35;18.65;;;13.23;;
28988;SDS011;16089;59.952;10.818;2022-08-19T04:00:03;20.83;;;13.82;;
28988;SDS011;16089;59.952;10.818;2022-08-19T04:02:30;18.42;;;13.52;;
28988;SDS011;16089;59.952;10.818;2022-08-19T04:04:57;17.77;;;12.80;;
28988;SDS011;16089;59.952;10.818;2022-08-19T04:07:23;18.05;;;12.60;;
28988;SDS011;16089;59.952;10.818;2022-08-19T04:09:49;16.63;;;12.73;;
28988;SDS011;16089;59.952;10.818;2022-08-19T04:12:17;18.15;;;12.40;;
28988;SDS011;16089;59.952;10.818;2022-08-19T04:14:46;14.65;;;9.95;;
28988;SDS011;16089;59.952;10.818;2022-08-19T04:17:12;15.38;;;9.25;;
28988;SDS011;16089;59.952;10.818;2022-08-19T04:19:39;11.75;;;7.50;;
28988;SDS011;16089;59.952;10.818;2022-08-19T04:22:06;13.32;;;8.27;;
28988;SDS011;16089;59.952;10.818;2022-08-19T04:24:33;11.80;;;8.10;;
28988;SDS011;16089;59.952;10.818;2022-08-19T04:27:00;10.20;;;7.40;;
28988;SDS011;16089;59.952;10.818;2022-08-19T04:29:27;10.10;;;7.05;;
28988;SDS011;16089;59.952;10.818;2022-08-19T04:31:56;9.50;;;7.03;;
28988;SDS011;16089;59.952;10.818;2022-08-19T04:34:24;13.30;;;7.20;;
28988;SDS011;16089;59.952;10.818;2022-08-19T04:36:51;8.00;;;5.35;;
28988;SDS011;16089;59.952;10.818;2022-08-19T04:39:18;8.38;;;5.30;;
28988;SDS011;16089;59.952;10.818;2022-08-19T04:41:45;10.18;;;4.65;;
28988;SDS011;16089;59.952;10.818;2022-08-19T04:44:29;7.55;;;4.07;;
28988;SDS011;16089;59.952;10.818;2022-08-19T04:46:57;9.60;;;4.72;;
28988;SDS011;16089;59.952;10.818;2022-08-19T04:49:24;6.20;;;4.43;;
28988;SDS011;16089;59.952;10.818;2022-08-19T04:51:51;7.75;;;4.47;;
28988;SDS011;16089;59.952;10.818;2022-08-19T04:54:18;6.85;;;4.68;;
28988;SDS011;16089;59.952;10.818;2022-08-19T04:56:47;7.38;;;5.22;;
28988;SDS011;16089;59.952;10.818;2022-08-19T04:59:14;10.52;;;4.90;;
28988;SDS011;16089;59.952;10.818;2022-08-19T05:01:42;7.93;;;5.07;;
28988;SDS011;16089;59.952;10.818;2022-08-19T05:04:10;8.73;;;5.22;;
28988;SDS011;16089;59.952;10.818;2022-08-19T05:06:38;10.13;;;5.43;;
28988;SDS011;16089;59.952;10.818;2022-08-19T05:09:05;11.68;;;5.43;;
28988;SDS011;16089;59.952;10.818;2022-08-19T05:11:32;11.00;;;5.90;;
28988;SDS011;16089;59.952;10.818;2022-08-19T05:13:59;8.98;;;4.85;;
28988;SDS011;16089;59.952;10.818;2022-08-19T05:16:26;10.60;;;5.20;;
28988;SDS011;16089;59.952;10.818;2022-08-19T05:18:53;11.20;;;5.72;;
28988;SDS011;16089;59.952;10.818;2022-08-19T05:21:38;9.57;;;5.55;;
28988;SDS011;16089;59.952;10.818;2022-08-19T05:24:23;8.57;;;5.38;;
28988;SDS011;16089;59.952;10.818;2022-08-19T05:26:50;12.82;;;5.22;;
28988;SDS011;16089;59.952;10.818;2022-08-19T05:29:19;8.90;;;5.20;;
28988;SDS011;16089;59.952;10.818;2022-08-19T05:31:46;11.15;;;5.72;;
28988;SDS011;16089;59.952;10.818;2022-08-19T05:34:14;10.35;;;5.35;;
28988;SDS011;16089;59.952;10.818;2022-08-19T05:36:43;11.73;;;5.20;;
28988;SDS011;16089;59.952;10.818;2022-08-19T05:39:10;11.20;;;4.85;;
28988;SDS011;16089;59.952;10.818;2022-08-19T05:41:40;10.10;;;4.40;;
28988;SDS011;16089;59.952;10.818;2022-08-19T05:44:07;8.25;;;4.60;;
28988;SDS011;16089;59.952;10.818;2022-08-19T05:46:34;12.45;;;6.20;;
28988;SDS011;16089;59.952;10.818;2022-08-19T05:49:02;15.02;;;5.70;;
28988;SDS011;16089;59.952;10.818;2022-08-19T05:51:29;10.23;;;4.63;;
28988;SDS011;16089;59.952;10.818;2022-08-19T05:53:57;11.93;;;4.13;;
28988;SDS011;16089;59.952;10.818;2022-08-19T05:56:24;11.15;;;5.03;;
28988;SDS011;16089;59.952;10.818;2022-08-19T05:58:50;9.77;;;4.40;;
28988;SDS011;16089;59.952;10.818;2022-08-19T06:01:18;9.10;;;4.15;;
28988;SDS011;16089;59.952;10.818;2022-08-19T06:03:44;7.28;;;3.30;;
28988;SDS011;16089;59.952;10.818;2022-08-19T06:06:13;9.35;;;3.55;;
28988;SDS011;16089;59.952;10.818;2022-08-19T06:08:40;10.98;;;3.28;;
28988;SDS011;16089;59.952;10.818;2022-08-19T06:11:13;10.77;;;3.60;;
28988;SDS011;16089;59.952;10.818;2022-08-19T06:13:40;8.43;;;3.42;;
28988;SDS011;16089;59.952;10.818;2022-08-19T06:16:06;9.05;;;3.83;;
28988;SDS011;16089;59.952;10.818;2022-08-19T06:18:33;7.72;;;3.55;;
28988;SDS011;16089;59.952;10.818;2022-08-19T06:20:59;9.13;;;3.60;;
28988;SDS011;16089;59.952;10.818;2022-08-19T06:23:29;11.52;;;4.65;;
28988;SDS011;16089;59.952;10.818;2022-08-19T06:25:56;10.05;;;3.75;;
28988;SDS011;16089;59.952;10.818;2022-08-19T06:28:23;8.57;;;3.63;;
28988;SDS011;16089;59.952;10.818;2022-08-19T06:30:50;7.68;;;3.47;;
28988;SDS011;16089;59.952;10.818;2022-08-19T06:33:16;6.20;;;3.20;;
28988;SDS011;16089;59.952;10.818;2022-08-19T06:35:42;9.45;;;3.75;;
28988;SDS011;16089;59.952;10.818;2022-08-19T06:38:09;5.70;;;3.53;;
28988;SDS011;16089;59.952;10.818;2022-08-19T06:40:35;10.98;;;3.42;;
28988;SDS011;16089;59.952;10.818;2022-08-19T06:43:03;8.57;;;3.28;;
28988;SDS011;16089;59.952;10.818;2022-08-19T06:45:30;8.30;;;2.88;;
28988;SDS011;16089;59.952;10.818;2022-08-19T06:47:57;8.90;;;3.00;;
28988;SDS011;16089;59.952;10.818;2022-08-19T06:50:23;8.48;;;2.90;;
28988;SDS011;16089;59.952;10.818;2022-08-19T06:52:50;10.85;;;2.60;;
28988;SDS011;16089;59.952;10.818;2022-08-19T06:55:16;9.13;;;2.35;;
28988;SDS011;16089;59.952;10.818;2022-08-19T06:57:43;8.02;;;2.42;;
28988;SDS011;16089;59.952;10.818;2022-08-19T07:00:11;5.93;;;2.25;;
28988;SDS011;16089;59.952;10.818;2022-08-19T07:02:39;9.68;;;2.35;;
28988;SDS011;16089;59.952;10.818;2022-08-19T07:05:06;9.10;;;2.33;;
28988;SDS011;16089;59.952;10.818;2022-08-19T07:07:33;9.80;;;2.55;;
28988;SDS011;16089;59.952;10.818;2022-08-19T07:09:59;6.22;;;2.05;;
28988;SDS011;16089;59.952;10.818;2022-08-19T07:12:26;9.63;;;2.63;;
28988;SDS011;16089;59.952;10.818;2022-08-19T07:14:52;8.77;;;2.50;;
28988;SDS011;16089;59.952;10.818;2022-08-19T07:17:19;11.52;;;2.72;;
28988;SDS011;16089;59.952;10.818;2022-08-19T07:19:47;14.05;;;3.17;;
28988;SDS011;16089;59.952;10.818;2022-08-19T07:22:15;10.52;;;3.55;;
28988;SDS011;16089;59.952;10.818;2022-08-19T07:24:42;11.07;;;3.80;;
28988;SDS011;16089;59.952;10.818;2022-08-19T07:27:09;8.48;;;3.30;;
28988;SDS011;16089;59.952;10.818;2022-08-19T07:29:36;10.82;;;2.85;;
28988;SDS011;16089;59.952;10.818;2022-08-19T07:32:03;6.40;;;2.50;;
28988;SDS011;16089;59.952;10.818;2022-08-19T07:34:29;11.25;;;3.38;;
28988;SDS011;16089;59.952;10.818;2022-08-19T07:37:00;10.73;;;3.13;;
28988;SDS011;16089;59.952;10.818;2022-08-19T07:39:29;10.43;;;2.47;;
28988;SDS011;16089;59.952;10.818;2022-08-19T07:41:56;9.88;;;2.83;;
28988;SDS011;16089;59.952;10.818;2022-08-19T07:44:24;12.82;;;4.53;;
28988;SDS011;16089;59.952;10.818;2022-08-19T07:46:51;9.57;;;2.72;;
28988;SDS011;16089;59.952;10.818;2022-08-19T07:49:17;6.25;;;2.15;;
28988;SDS011;16089;59.952;10.818;2022-08-19T07:51:44;7.47;;;2.45;;
28988;SDS011;16089;59.952;10.818;2022-08-19T07:54:12;9.07;;;2.92;;
28988;SDS011;16089;59.952;10.818;2022-08-19T07:56:38;12.50;;;3.80;;
28988;SDS011;16089;59.952;10.818;2022-08-19T07:59:05;11.93;;;3.53;;
28988;SDS011;16089;59.952;10.818;2022-08-19T08:01:32;11.05;;;2.80;;
28988;SDS011;16089;59.952;10.818;2022-08-19T08:03:59;8.25;;;2.80;;
28988;SDS011;16089;59.952;10.818;2022-08-19T08:06:43;9.77;;;2.38;;
28988;SDS011;16089;59.952;10.818;2022-08-19T08:09:29;8.35;;;2.47;;
28988;SDS011;16089;59.952;10.818;2022-08-19T08:11:58;9.88;;;2.40;;
28988;SDS011;16089;59.952;10.818;2022-08-19T08:14:25;10.23;;;3.00;;
28988;SDS011;16089;59.952;10.818;2022-08-19T08:16:52;10.60;;;2.92;;
28988;SDS011;16089;59.952;10.818;2022-08-19T08:19:19;9.20;;;2.50;;
28988;SDS011;16089;59.952;10.818;2022-08-19T08:21:46;8.93;;;2.30;;
28988;SDS011;16089;59.952;10.818;2022-08-19T08:24:12;6.65;;;2.53;;
28988;SDS011;16089;59.952;10.818;2022-08-19T08:26:40;6.75;;;2.22;;
28988;SDS011;16089;59.952;10.818;2022-08-19T08:29:09;10.57;;;2.80;;
28988;SDS011;16089;59.952;10.818;2022-08-19T08:31:38;6.75;;;2.30;;
28988;SDS011;16089;59.952;10.818;2022-08-19T08:34:04;6.75;;;2.30;;
28988;SDS011;16089;59.952;10.818;2022-08-19T08:36:31;7.63;;;2.45;;
28988;SDS011;16089;59.952;10.818;2022-08-19T08:38:58;8.40;;;2.42;;
28988;SDS011;16089;59.952;10.818;2022-08-19T08:41:27;7.85;;;2.22;;
28988;SDS011;16089;59.952;10.818;2022-08-19T08:43:56;6.82;;;2.30;;
28988;SDS011;16089;59.952;10.818;2022-08-19T08:46:24;9.90;;;3.13;;
28988;SDS011;16089;59.952;10.818;2022-08-19T08:48:53;6.28;;;2.20;;
28988;SDS011;16089;59.952;10.818;2022-08-19T08:51:22;7.00;;;2.55;;
28988;SDS011;16089;59.952;10.818;2022-08-19T08:53:50;7.75;;;2.30;;
28988;SDS011;16089;59.952;10.818;2022-08-19T08:56:18;8.77;;;2.30;;
28988;SDS011;16089;59.952;10.818;2022-08-19T08:58:46;8.93;;;2.40;;
28988;SDS011;16089;59.952;10.818;2022-08-19T09:01:15;6.45;;;1.83;;
28988;SDS011;16089;59.952;10.818;2022-08-19T09:03:42;7.38;;;2.13;;
28988;SDS011;16089;59.952;10.818;2022-08-19T09:06:11;7.60;;;2.08;;
28988;SDS011;16089;59.952;10.818;2022-08-19T09:08:40;8.73;;;2.53;;
28988;SDS011;16089;59.952;10.818;2022-08-19T09:11:10;8.77;;;2.20;;
28988;SDS011;16089;59.952;10.818;2022-08-19T09:13:41;9.68;;;2.30;;
28988;SDS011;16089;59.952;10.818;2022-08-19T09:16:12;5.78;;;2.08;;
28988;SDS011;16089;59.952;10.818;2022-08-19T09:18:42;7.47;;;1.95;;
28988;SDS011;16089;59.952;10.818;2022-08-19T09:21:09;6.72;;;1.90;;
28988;SDS011;16089;59.952;10.818;2022-08-19T09:23:36;8.70;;;2.17;;
28988;SDS011;16089;59.952;10.818;2022-08-19T09:26:06;8.65;;;1.85;;
28988;SDS011;16089;59.952;10.818;2022-08-19T09:28:32;6.78;;;1.83;;
28988;SDS011;16089;59.952;10.818;2022-08-19T09:30:59;7.47;;;1.92;;
28988;SDS011;16089;59.952;10.818;2022-08-19T09:33:25;6.63;;;2.10;;
28988;SDS011;16089;59.952;10.818;2022-08-19T09:36:02;7.75;;;2.20;;
28988;SDS011;16089;59.952;10.818;2022-08-19T09:38:29;9.45;;;2.47;;
28988;SDS011;16089;59.952;10.818;2022-08-19T09:40:55;7.40;;;2.20;;
28988;SDS011;16089;59.952;10.818;2022-08-19T09:43:21;7.88;;;2.38;;
28988;SDS011;16089;59.952;10.818;2022-08-19T09:45:48;10.40;;;2.50;;
28988;SDS011;16089;59.952;10.818;2022-08-19T09:48:14;7.97;;;2.50;;
28988;SDS011;16089;59.952;10.818;2022-08-19T09:50:41;8.48;;;2.65;;
28988;SDS011;16089;59.952;10.818;2022-08-19T09:53:08;9.45;;;2.28;;
28988;SDS011;16089;59.952;10.818;2022-08-19T09:55:35;7.93;;;2.15;;
28988;SDS011;16089;59.952;10.818;2022-08-19T09:58:01;8.25;;;2.08;;
28988;SDS011;16089;59.952;10.818;2022-08-19T10:00:28;7.32;;;2.40;;
28988;SDS011;16089;59.952;10.818;2022-08-19T10:02:55;6.13;;;1.90;;
28988;SDS011;16089;59.952;10.818;2022-08-19T10:05:22;6.95;;;2.15;;
28988;SDS011;16089;59.952;10.818;2022-08-19T10:08:06;5.80;;;2.13;;
28988;SDS011;16089;59.952;10.818;2022-08-19T10:10:36;6.03;;;1.83;;
28988;SDS011;16089;59.952;10.818;2022-08-19T10:13:02;10.57;;;2.30;;
28988;SDS011;16089;59.952;10.818;2022-08-19T10:15:28;5.80;;;1.80;;
28988;SDS011;16089;59.952;10.818;2022-08-19T10:17:55;5.95;;;1.80;;
28988;SDS011;16089;59.952;10.818;2022-08-19T10:20:21;6.68;;;2.22;;
28988;SDS011;16089;59.952;10.818;2022-08-19T10:22:48;7.95;;;1.85;;
28988;SDS011;16089;59.952;10.818;2022-08-19T10:25:14;4.22;;;1.65;;
28988;SDS011;16089;59.952;10.818;2022-08-19T10:27:43;8.07;;;1.90;;
28988;SDS011;16089;59.952;10.818;2022-08-19T10:30:10;5.82;;;1.70;;
28988;SDS011;16089;59.952;10.818;2022-08-19T10:32:37;6.53;;;2.15;;
28988;SDS011;16089;59.952;10.818;2022-08-19T10:35:04;6.50;;;1.70;;
28988;SDS011;16089;59.952;10.818;2022-08-19T10:37:33;5.43;;;1.70;;
28988;SDS011;16089;59.952;10.818;2022-08-19T10:39:59;6.07;;;1.35;;
28988;SDS011;16089;59.952;10.818;2022-08-19T10:42:26;4.60;;;1.70;;
28988;SDS011;16089;59.952;10.818;2022-08-19T10:44:54;9.02;;;1.50;;
28988;SDS011;16089;59.952;10.818;2022-08-19T10:47:21;5.20;;;1.67;;
28988;SDS011;16089;59.952;10.818;2022-08-19T10:49:48;5.60;;;1.70;;
28988;SDS011;16089;59.952;10.818;2022-08-19T10:52:32;3.80;;;1.67;;
28988;SDS011;16089;59.952;10.818;2022-08-19T10:55:03;8.98;;;2.10;;
28988;SDS011;16089;59.952;10.818;2022-08-19T11:00:15;5.20;;;1.77;;
28988;SDS011;16089;59.952;10.818;2022-08-19T11:02:41;10.32;;;1.70;;
28988;SDS011;16089;59.952;10.818;2022-08-19T11:05:08;5.68;;;1.63;;
28988;SDS011;16089;59.952;10.818;2022-08-19T11:07:35;4.63;;;1.40;;
28988;SDS011;16089;59.952;10.818;2022-08-19T11:10:02;5.55;;;1.60;;
28988;SDS011;16089;59.952;10.818;2022-08-19T11:12:29;10.85;;;2.33;;
28988;SDS011;16089;59.952;10.818;2022-08-19T11:14:55;7.38;;;1.90;;
28988;SDS011;16089;59.952;10.818;2022-08-19T11:17:23;6.60;;;1.70;;
28988;SDS011;16089;59.952;10.818;2022-08-19T11:19:49;3.92;;;1.42;;
28988;SDS011;16089;59.952;10.818;2022-08-19T11:22:16;6.70;;;1.75;;
28988;SDS011;16089;59.952;10.818;2022-08-19T11:24:42;5.63;;;1.70;;
28988;SDS011;16089;59.952;10.818;2022-08-19T11:27:09;6.00;;;1.75;;
28988;SDS011;16089;59.952;10.818;2022-08-19T11:29:37;9.57;;;1.58;;
28988;SDS011;16089;59.952;10.818;2022-08-19T11:32:05;6.68;;;1.55;;
28988;SDS011;16089;59.952;10.818;2022-08-19T11:34:33;7.43;;;1.52;;
28988;SDS011;16089;59.952;10.818;2022-08-19T11:37:00;7.60;;;1.60;;
28988;SDS011;16089;59.952;10.818;2022-08-19T11:39:29;6.53;;;1.40;;
28988;SDS011;16089;59.952;10.818;2022-08-19T11:41:56;4.63;;;1.30;;
28988;SDS011;16089;59.952;10.818;2022-08-19T11:44:23;5.15;;;1.73;;
28988;SDS011;16089;59.952;10.818;2022-08-19T11:46:50;5.07;;;1.50;;
28988;SDS011;16089;59.952;10.818;2022-08-19T11:49:18;4.03;;;1.30;;
28988;SDS011;16089;59.952;10.818;2022-08-19T11:51:47;4.50;;;1.42;;
28988;SDS011;16089;59.952;10.818;2022-08-19T11:54:15;6.57;;;1.60;;
28988;SDS011;16089;59.952;10.818;2022-08-19T11:56:42;7.43;;;1.77;;
28988;SDS011;16089;59.952;10.818;2022-08-19T11:59:08;7.88;;;2.00;;
28988;SDS011;16089;59.952;10.818;2022-08-19T12:01:35;5.88;;;2.13;;
28988;SDS011;16089;59.952;10.818;2022-08-19T12:04:03;4.88;;;1.80;;
28988;SDS011;16089;59.952;10.818;2022-08-19T12:06:31;3.92;;;1.40;;
28988;SDS011;16089;59.952;10.818;2022-08-19T12:09:01;4.75;;;1.50;;
28988;SDS011;16089;59.952;10.818;2022-08-19T12:11:29;5.13;;;1.30;;
28988;SDS011;16089;59.952;10.818;2022-08-19T12:13:56;5.20;;;1.45;;
28988;SDS011;16089;59.952;10.818;2022-08-19T12:16:22;4.95;;;1.60;;
28988;SDS011;16089;59.952;10.818;2022-08-19T12:18:49;4.05;;;1.40;;
28988;SDS011;16089;59.952;10.818;2022-08-19T12:21:18;8.73;;;1.60;;
28988;SDS011;16089;59.952;10.818;2022-08-19T12:23:46;6.32;;;1.40;;
28988;SDS011;16089;59.952;10.818;2022-08-19T12:26:14;6.63;;;1.35;;
28988;SDS011;16089;59.952;10.818;2022-08-19T12:28:41;6.97;;;2.80;;
28988;SDS011;16089;59.952;10.818;2022-08-19T12:31:08;4.32;;;1.40;;
28988;SDS011;16089;59.952;10.818;2022-08-19T12:33:36;15.73;;;10.40;;
28988;SDS011;16089;59.952;10.818;2022-08-19T12:36:04;9.13;;;4.70;;
28988;SDS011;16089;59.952;10.818;2022-08-19T12:38:30;4.55;;;1.92;;
28988;SDS011;16089;59.952;10.818;2022-08-19T12:40:57;5.80;;;1.60;;
28988;SDS011;16089;59.952;10.818;2022-08-19T12:43:25;4.18;;;1.05;;
28988;SDS011;16089;59.952;10.818;2022-08-19T12:45:51;4.95;;;1.23;;
28988;SDS011;16089;59.952;10.818;2022-08-19T12:48:18;3.92;;;1.23;;
28988;SDS011;16089;59.952;10.818;2022-08-19T12:50:44;4.45;;;1.60;;
28988;SDS011;16089;59.952;10.818;2022-08-19T12:53:11;9.25;;;2.80;;
28988;SDS011;16089;59.952;10.818;2022-08-19T12:55:38;7.60;;;3.80;;
28988;SDS011;16089;59.952;10.818;2022-08-19T12:58:04;5.95;;;1.50;;
28988;SDS011;16089;59.952;10.818;2022-08-19T13:00:32;4.45;;;1.08;;
28988;SDS011;16089;59.952;10.818;2022-08-19T13:02:59;7.80;;;1.40;;
28988;SDS011;16089;59.952;10.818;2022-08-19T13:05:26;2.38;;;0.82;;
28988;SDS011;16089;59.952;10.818;2022-08-19T13:07:54;6.25;;;1.10;;
28988;SDS011;16089;59.952;10.818;2022-08-19T13:10:22;8.20;;;2.50;;
28988;SDS011;16089;59.952;10.818;2022-08-19T13:12:50;10.35;;;3.08;;
28988;SDS011;16089;59.952;10.818;2022-08-19T13:15:18;4.13;;;1.23;;
28988;SDS011;16089;59.952;10.818;2022-08-19T13:17:47;4.68;;;1.10;;
28988;SDS011;16089;59.952;10.818;2022-08-19T13:20:14;3.75;;;1.70;;
28988;SDS011;16089;59.952;10.818;2022-08-19T13:22:41;5.43;;;1.60;;
28988;SDS011;16089;59.952;10.818;2022-08-19T13:25:10;4.65;;;1.40;;
28988;SDS011;16089;59.952;10.818;2022-08-19T13:27:36;4.75;;;1.17;;
28988;SDS011;16089;59.952;10.818;2022-08-19T13:30:04;6.72;;;1.25;;
28988;SDS011;16089;59.952;10.818;2022-08-19T13:32:49;4.78;;;1.30;;
28988;SDS011;16089;59.952;10.818;2022-08-19T13:35:33;5.18;;;1.10;;
28988;SDS011;16089;59.952;10.818;2022-08-19T13:37:59;6.18;;;1.63;;
28988;SDS011;16089;59.952;10.818;2022-08-19T13:40:30;6.13;;;2.40;;
28988;SDS011;16089;59.952;10.818;2022-08-19T13:42:59;7.72;;;1.88;;
28988;SDS011;16089;59.952;10.818;2022-08-19T13:45:26;5.32;;;1.30;;
28988;SDS011;16089;59.952;10.818;2022-08-19T13:47:55;5.43;;;1.15;;
28988;SDS011;16089;59.952;10.818;2022-08-19T13:50:22;5.15;;;1.10;;
28988;SDS011;16089;59.952;10.818;2022-08-19T13:52:49;4.13;;;1.30;;
28988;SDS011;16089;59.952;10.818;2022-08-19T13:55:16;4.47;;;1.20;;
28988;SDS011;16089;59.952;10.818;2022-08-19T13:57:42;4.47;;;1.17;;
28988;SDS011;16089;59.952;10.818;2022-08-19T14:00:10;3.33;;;1.30;;
28988;SDS011;16089;59.952;10.818;2022-08-19T14:02:38;2.55;;;1.00;;
28988;SDS011;16089;59.952;10.818;2022-08-19T14:05:07;2.55;;;1.05;;
28988;SDS011;16089;59.952;10.818;2022-08-19T14:07:34;3.90;;;1.20;;
28988;SDS011;16089;59.952;10.818;2022-08-19T14:10:01;3.03;;;1.20;;
28988;SDS011;16089;59.952;10.818;2022-08-19T14:12:27;4.15;;;1.13;;
28988;SDS011;16089;59.952;10.818;2022-08-19T14:14:53;5.82;;;1.30;;
28988;SDS011;16089;59.952;10.818;2022-08-19T14:17:20;4.60;;;1.58;;
28988;SDS011;16089;59.952;10.818;2022-08-19T14:19:46;3.83;;;1.77;;
28988;SDS011;16089;59.952;10.818;2022-08-19T14:22:14;6.78;;;2.60;;
28988;SDS011;16089;59.952;10.818;2022-08-19T14:24:40;4.95;;;1.70;;
28988;SDS011;16089;59.952;10.818;2022-08-19T14:27:07;5.13;;;1.20;;
28988;SDS011;16089;59.952;10.818;2022-08-19T14:29:33;4.70;;;1.30;;
28988;SDS011;16089;59.952;10.818;2022-08-19T14:31:59;5.20;;;1.30;;